Time;durP1;ratioP1;P1;durP2;ratioP2;P2;SDS_P1;SDS_P2;PMS_P1;PMS_P2;Temp;Humidity;BMP_temperature;BMP_pressure;BME280_temperature;BME280_humidity;BME280_pressure;Samples;Min_cycle;Max_cycle;Signal;HPM_P1;HPM_P2
2024/04/04 00:02:16;;;;;;;;;;;;;;;12.95;79.65;100794.97;5023530;28;20569;-90
2024/04/04 00:04:41;;;;;;;;;;;;;;;12.96;80.11;100799.28;5032280;28;19979;-90
2024/04/04 00:07:06;;;;;;;;;;;;;;;13.00;80.11;100794.19;5025283;28;19986;-89
2024/04/04 00:09:32;;;;;;;;;;;;;;;13.02;79.91;100794.72;5030593;28;20495;-89
2024/04/04 00:11:57;;;;;;;;;;;;;;;13.04;80.26;100789.06;5028685;28;19917;-89
2024/04/04 00:14:22;;;;;;;;;;;;;;;13.07;79.75;100785.84;5025802;28;19917;-89
2024/04/04 00:16:47;;;;;;;;;;;;;;;13.08;79.92;100784.78;5027871;28;19925;-90
2024/04/04 00:19:12;;;;;;;;;;;;;;;13.09;80.71;100781.00;5031383;28;19917;-90
2024/04/04 00:21:38;;;;;;;;;;;;;;;13.09;80.71;100779.13;5025142;28;19921;-90
2024/04/04 00:24:03;;;;;;;;;;;;;;;13.12;81.08;100775.13;5026662;28;20455;-90
2024/04/04 00:26:28;;;;;;;;;;;;;;;13.14;81.10;100773.78;5025058;28;20494;-90
2024/04/04 00:28:54;;;;;;;;;;;;;;;13.16;80.98;100778.91;5027924;28;20347;-89
2024/04/04 00:31:19;;;;;;;;;;;;;;;13.15;81.57;100769.22;5028356;28;20019;-89
2024/04/04 00:33:45;;;;;;;;;;;;;;;13.16;81.84;100770.84;5022209;28;20013;-87
2024/04/04 00:36:10;;;;;;;;;;;;;;;13.17;82.37;100769.75;5026243;28;19917;-88
2024/04/04 00:38:36;;;;;;;;;;;;;;;13.20;82.38;100761.19;5030021;28;19913;-89
2024/04/04 00:41:01;;;;;;;;;;;;;;;13.22;82.20;100767.91;5026009;28;19925;-89
2024/04/04 00:43:26;;;;;;;;;;;;;;;13.25;81.78;100750.44;5029442;28;20008;-88
2024/04/04 00:45:52;;;;;;;;;;;;;;;13.27;82.14;100751.78;5023402;28;19917;-88
2024/04/04 00:48:17;;;;;;;;;;;;;;;13.31;82.47;100749.38;5026257;28;19976;-88
2024/04/04 00:50:42;;;;;;;;;;;;;;;13.34;82.74;100764.19;5027044;28;20007;-89
2024/04/04 00:53:08;;;;;;;;;;;;;;;13.35;83.04;100765.81;5030363;28;19971;-88
2024/04/04 00:55:33;;;;;;;;;;;;;;;13.35;82.86;100769.31;5029105;28;20007;-88
2024/04/04 00:57:58;;;;;;;;;;;;;;;13.39;83.20;100765.00;5027046;28;20516;-89
2024/04/04 01:00:24;;;;;;;;;;;;;;;13.41;83.27;100762.03;5033886;28;19921;-89
2024/04/04 01:02:52;;;;;;;;;;;;;;;13.42;83.51;100766.34;5032215;28;19940;-89
2024/04/04 01:05:17;;;;;;;;;;;;;;;13.43;83.81;100755.31;5026208;28;19922;-88
2024/04/04 01:07:44;;;;;;;;;;;;;;;13.46;83.96;100752.09;5026518;28;19924;-88
2024/04/04 01:10:09;;;;;;;;;;;;;;;13.48;83.94;100755.34;5029450;28;19925;-88
2024/04/04 01:12:34;;;;;;;;;;;;;;;13.47;84.65;100752.91;5029208;28;19921;-88
2024/04/04 01:15:00;;;;;;;;;;;;;;;13.47;84.42;100751.03;5024050;28;19932;-88
2024/04/04 01:17:25;;;;;;;;;;;;;;;13.50;84.72;100758.56;5028396;28;19924;-88
2024/04/04 01:19:54;;;;;;;;;;;;;;;13.52;84.96;100755.59;5029228;28;19950;-89
2024/04/04 01:22:19;;;;;;;;;;;;;;;13.54;85.11;100751.56;5028126;28;20024;-89
2024/04/04 01:24:44;;;;;;;;;;;;;;;13.55;84.23;100752.38;5023220;28;20004;-89
2024/04/04 01:27:09;;;;;;;;;;;;;;;13.54;84.93;100754.25;5025574;28;20403;-88
2024/04/04 01:29:35;;;;;;;;;;;;;;;13.54;85.75;100750.75;5029490;28;20282;-88
2024/04/04 01:32:00;;;;;;;;;;;;;;;13.52;85.30;100761.81;5027908;28;20407;-89
2024/04/04 01:34:25;;;;;;;;;;;;;;;13.55;85.66;100752.38;5024258;28;19939;-89
2024/04/04 01:36:51;;;;;;;;;;;;;;;13.58;85.64;100747.25;5024998;28;19924;-88
2024/04/04 01:39:17;;;;;;;;;;;;;;;13.58;85.88;100752.66;5028659;28;19917;-89
2024/04/04 01:41:43;;;;;;;;;;;;;;;13.59;86.00;100753.44;5027166;28;19971;-89
2024/04/04 01:44:08;;;;;;;;;;;;;;;13.59;85.99;100748.88;5023714;28;20439;-89
2024/04/04 01:46:34;;;;;;;;;;;;;;;13.61;86.10;100738.66;5033033;28;19917;-89
2024/04/04 01:48:59;;;;;;;;;;;;;;;13.64;86.07;100744.56;5032204;28;20008;-88
2024/04/04 01:51:24;;;;;;;;;;;;;;;13.67;85.41;100738.66;5028142;28;19920;-89
2024/04/04 01:53:49;;;;;;;;;;;;;;;13.66;86.26;100734.38;5026120;28;19921;-89
2024/04/04 01:56:15;;;;;;;;;;;;;;;13.65;86.08;100735.44;5030476;28;20032;-89
2024/04/04 01:58:40;;;;;;;;;;;;;;;13.65;86.31;100732.75;5027857;28;19971;-88
2024/04/04 02:01:05;;;;;;;;;;;;;;;13.66;86.07;100732.47;5025907;28;19928;-89
2024/04/04 02:03:30;;;;;;;;;;;;;;;13.66;85.79;100727.09;5033388;28;19975;-91
2024/04/04 02:05:55;;;;;;;;;;;;;;;13.65;85.97;100725.47;5024885;28;19917;-89
2024/04/04 02:08:20;;;;;;;;;;;;;;;13.65;85.91;100735.44;5025817;28;19920;-90
2024/04/04 02:10:46;;;;;;;;;;;;;;;13.65;86.22;100727.38;5031678;28;19917;-88
2024/04/04 02:13:11;;;;;;;;;;;;;;;13.63;86.26;100727.59;5027806;28;19918;-89
2024/04/04 02:15:39;;;;;;;;;;;;;;;13.64;86.18;100723.84;5026303;28;20409;-88
2024/04/04 02:18:05;;;;;;;;;;;;;;;13.64;86.19;100721.16;5031022;28;19928;-88
2024/04/04 02:20:30;;;;;;;;;;;;;;;13.65;85.99;100720.09;5031091;28;19925;-89
2024/04/04 02:22:55;;;;;;;;;;;;;;;13.66;86.22;100716.31;5029867;28;19925;-89
2024/04/04 02:25:20;;;;;;;;;;;;;;;13.67;85.68;100717.13;5030430;28;20075;-90
2024/04/04 02:27:45;;;;;;;;;;;;;;;13.67;85.96;100717.13;4964166;28;1883213;-89
2024/04/04 02:30:12;;;;;;;;;;;;;;;13.67;86.97;100719.81;5025324;28;20270;-89
2024/04/04 02:32:37;;;;;;;;;;;;;;;13.67;86.46;100711.75;5025842;28;19917;-89
2024/04/04 02:35:04;;;;;;;;;;;;;;;13.67;86.32;100715.25;5042535;28;19928;-89
2024/04/04 02:37:30;;;;;;;;;;;;;;;13.68;85.84;100722.25;5031317;28;20003;-89
2024/04/04 02:39:55;;;;;;;;;;;;;;;13.66;86.50;100715.53;5029274;28;19963;-89
2024/04/04 02:42:20;;;;;;;;;;;;;;;13.67;87.05;100709.06;5025608;28;19917;-89
2024/04/04 02:44:46;;;;;;;;;;;;;;;13.70;86.78;100708.50;5024830;28;20447;-89
2024/04/04 02:47:11;;;;;;;;;;;;;;;13.71;87.04;100710.13;5028075;28;19959;-90
2024/04/04 02:49:36;;;;;;;;;;;;;;;13.73;86.52;100706.09;5032540;28;19928;-88
2024/04/04 02:52:01;;;;;;;;;;;;;;;13.74;86.46;100702.31;5027167;28;19925;-89
2024/04/04 02:54:26;;;;;;;;;;;;;;;13.74;87.08;100706.88;5027995;28;19929;-89
2024/04/04 02:56:52;;;;;;;;;;;;;;;13.74;87.21;100709.59;5031430;28;19917;-90
2024/04/04 02:59:17;;;;;;;;;;;;;;;13.74;86.80;100701.50;5030284;28;20415;-90
2024/04/04 03:01:42;;;;;;;;;;;;;;;13.72;87.35;100698.28;5031850;28;19929;-89
2024/04/04 03:04:07;;;;;;;;;;;;;;;13.74;87.97;100701.50;5026815;28;19963;-89
2024/04/04 03:06:34;;;;;;;;;;;;;;;13.76;87.57;100707.41;5031188;28;20274;-90
2024/04/04 03:08:59;;;;;;;;;;;;;;;13.77;87.27;100698.25;5025225;28;20023;-89
2024/04/04 03:11:24;;;;;;;;;;;;;;;13.78;87.30;100697.19;5025124;28;20409;-89
2024/04/04 03:13:50;;;;;;;;;;;;;;;13.78;87.49;100697.19;5028794;28;19963;-89
2024/04/04 03:16:15;;;;;;;;;;;;;;;13.76;87.66;100699.34;5023048;28;20397;-88
2024/04/04 03:18:40;;;;;;;;;;;;;;;13.80;87.34;100700.41;5046063;28;19916;-89
2024/04/04 03:21:05;;;;;;;;;;;;;;;13.79;87.45;100702.28;5026502;28;19917;-89
2024/04/04 03:23:30;;;;;;;;;;;;;;;13.79;86.82;100704.19;5032138;28;20373;-90
2024/04/04 03:25:56;;;;;;;;;;;;;;;13.77;87.48;100703.66;5026024;28;19917;-89
2024/04/04 03:28:21;;;;;;;;;;;;;;;13.77;87.56;100700.97;5028375;28;19925;-90
2024/04/04 03:30:47;;;;;;;;;;;;;;;13.79;87.44;100705.00;5031047;28;20624;-89
2024/04/04 03:33:12;;;;;;;;;;;;;;;13.79;87.79;100702.28;5027008;28;19973;-89
2024/04/04 03:35:38;;;;;;;;;;;;;;;13.80;87.28;100701.22;5022680;28;19917;-89
2024/04/04 03:38:03;;;;;;;;;;;;;;;13.80;87.53;100695.03;5031488;28;21747;-89
2024/04/04 03:40:29;;;;;;;;;;;;;;;13.80;88.05;100695.84;5027029;28;19921;-89
2024/04/04 03:42:54;;;;;;;;;;;;;;;13.80;88.04;100700.41;5029617;28;20305;-90
2024/04/04 03:45:20;;;;;;;;;;;;;;;13.81;87.98;100699.34;5019993;28;19925;-89
2024/04/04 03:47:45;;;;;;;;;;;;;;;13.81;88.05;100692.06;5028226;28;19996;-90
2024/04/04 03:50:10;;;;;;;;;;;;;;;13.81;88.45;100699.34;5026202;28;20418;-89
2024/04/04 03:52:35;;;;;;;;;;;;;;;13.81;88.15;100696.63;5019618;28;19967;-89
2024/04/04 03:55:01;;;;;;;;;;;;;;;13.80;88.08;100703.91;5021805;28;20014;-89
2024/04/04 03:57:26;;;;;;;;;;;;;;;13.77;88.14;100700.97;5027826;28;20027;-89
2024/04/04 03:59:51;;;;;;;;;;;;;;;13.74;88.29;100696.94;5031632;28;19958;-89
2024/04/04 04:02:16;;;;;;;;;;;;;;;13.72;89.14;100693.69;5025366;28;20373;-89
2024/04/04 04:04:41;;;;;;;;;;;;;;;13.73;88.59;100694.50;5026071;28;19914;-89
2024/04/04 04:07:07;;;;;;;;;;;;;;;13.72;88.17;100693.69;5028690;28;19917;-89
2024/04/04 04:09:32;;;;;;;;;;;;;;;13.72;88.66;100695.59;5031290;28;19920;-89
2024/04/04 04:11:57;;;;;;;;;;;;;;;13.70;89.07;100703.94;5030201;28;19917;-89
2024/04/04 04:14:23;;;;;;;;;;;;;;;13.70;88.86;100689.66;5025322;28;19970;-89
2024/04/04 04:16:48;;;;;;;;;;;;;;;13.70;89.34;100695.84;5016932;28;19921;-90
2024/04/04 04:19:13;;;;;;;;;;;;;;;13.72;89.09;100699.09;5023386;28;19952;-89
2024/04/04 04:21:39;;;;;;;;;;;;;;;13.75;88.70;100703.13;5024399;28;19925;-89
2024/04/04 04:24:04;;;;;;;;;;;;;;;13.75;88.38;100705.81;5029437;28;20374;-89
2024/04/04 04:26:30;;;;;;;;;;;;;;;13.73;88.18;100707.97;5024811;28;20051;-90
2024/04/04 04:28:55;;;;;;;;;;;;;;;13.72;88.06;100709.03;5029672;28;20379;-89
2024/04/04 04:31:28;;;;;;;;;;;;;;;13.69;88.43;100709.59;5025323;28;19928;-89
2024/04/04 04:33:53;;;;;;;;;;;;;;;13.65;89.11;100711.22;5031706;28;19983;-90
2024/04/04 04:36:19;;;;;;;;;;;;;;;13.63;89.14;100716.03;5026224;28;19960;-90
2024/04/04 04:38:44;;;;;;;;;;;;;;;13.59;89.55;100708.50;5031334;28;20004;-90
2024/04/04 04:41:10;;;;;;;;;;;;;;;13.60;89.26;100709.31;5030373;28;20365;-90
2024/04/04 04:43:35;;;;;;;;;;;;;;;13.60;89.63;100717.38;5026896;28;20416;-89
2024/04/04 04:46:00;;;;;;;;;;;;;;;13.62;89.70;100715.22;5028677;28;20535;-90
2024/04/04 04:48:26;;;;;;;;;;;;;;;13.60;89.96;100712.00;5027890;28;20008;-90
2024/04/04 04:50:51;;;;;;;;;;;;;;;13.58;89.77;100720.34;5028721;28;19925;-90
2024/04/04 04:53:17;;;;;;;;;;;;;;;13.57;90.38;100717.91;5027362;28;19963;-91
2024/04/04 04:55:42;;;;;;;;;;;;;;;13.57;90.37;100721.41;5020061;28;20493;-89
2024/04/04 04:58:07;;;;;;;;;;;;;;;13.55;90.53;100725.47;5027380;28;19921;-90
2024/04/04 05:00:32;;;;;;;;;;;;;;;13.54;90.38;100727.34;5019604;28;20274;-89
2024/04/04 05:02:58;;;;;;;;;;;;;;;13.53;90.89;100727.63;5024354;28;19929;-90
2024/04/04 05:05:23;;;;;;;;;;;;;;;13.51;91.33;100729.78;5024888;28;19917;-90
2024/04/04 05:07:48;;;;;;;;;;;;;;;13.49;92.26;100731.94;5027537;28;19925;-88
2024/04/04 05:10:13;;;;;;;;;;;;;;;13.49;92.52;100746.19;5030130;28;19917;-90
2024/04/04 05:12:38;;;;;;;;;;;;;;;13.49;92.44;100727.34;5024958;28;19922;-90
2024/04/04 05:15:05;;;;;;;;;;;;;;;13.50;92.78;100734.34;5030473;28;19917;-90
2024/04/04 05:17:30;;;;;;;;;;;;;;;13.50;93.02;100745.13;5027383;28;19917;-88
2024/04/04 05:19:56;;;;;;;;;;;;;;;13.52;93.33;100750.22;5025316;28;20313;-87
2024/04/04 05:22:21;;;;;;;;;;;;;;;13.53;93.28;100746.47;5027140;28;20300;-89
2024/04/04 05:24:46;;;;;;;;;;;;;;;13.54;93.65;100745.38;5025362;28;19917;-89
2024/04/04 05:27:11;;;;;;;;;;;;;;;13.58;93.40;100746.47;5026374;28;19971;-87
2024/04/04 05:29:37;;;;;;;;;;;;;;;13.60;92.91;100761.25;5023919;28;19931;-89
2024/04/04 05:32:02;;;;;;;;;;;;;;;13.63;93.26;100759.09;5028468;28;20440;-89
2024/04/04 05:34:27;;;;;;;;;;;;;;;13.65;93.68;100752.41;5023440;28;19917;-88
2024/04/04 05:36:53;;;;;;;;;;;;;;;13.64;93.94;100760.72;5028918;28;19918;-89
2024/04/04 05:39:18;;;;;;;;;;;;;;;13.66;93.84;100761.28;5028165;28;19971;-89
2024/04/04 05:41:43;;;;;;;;;;;;;;;13.69;93.51;100755.34;5031489;28;19979;-89
2024/04/04 05:44:09;;;;;;;;;;;;;;;13.70;93.29;100759.66;5028587;28;19924;-89
2024/04/04 05:46:34;;;;;;;;;;;;;;;13.68;93.63;100762.63;5023148;28;20004;-89
2024/04/04 05:48:59;;;;;;;;;;;;;;;13.70;93.62;100760.47;5028318;28;20004;-89
2024/04/04 05:51:25;;;;;;;;;;;;;;;13.73;94.26;100764.50;5028590;28;20411;-89
2024/04/04 05:53:50;;;;;;;;;;;;;;;13.77;94.25;100762.88;5024200;28;20374;-89
2024/04/04 05:56:15;;;;;;;;;;;;;;;13.83;93.83;100759.16;5033789;28;19917;-89
2024/04/04 05:58:41;;;;;;;;;;;;;;;13.87;93.63;100771.78;5037887;28;19917;-89
2024/04/04 06:01:06;;;;;;;;;;;;;;;13.89;93.63;100758.06;5027434;28;19924;-89
2024/04/04 06:03:31;;;;;;;;;;;;;;;13.92;93.87;100762.91;5032732;28;19928;-90
2024/04/04 06:05:57;;;;;;;;;;;;;;;13.95;94.29;100766.94;5033947;28;19964;-90
2024/04/04 06:08:22;;;;;;;;;;;;;;;13.97;94.09;100776.34;5032353;28;19956;-89
2024/04/04 06:10:47;;;;;;;;;;;;;;;14.02;94.33;100768.28;5031287;28;19917;-89
2024/04/04 06:13:13;;;;;;;;;;;;;;;14.07;94.57;100770.97;5029582;28;20409;-89
2024/04/04 06:15:38;;;;;;;;;;;;;;;14.10;94.63;100765.03;5022613;28;20468;-89
2024/04/04 06:18:03;;;;;;;;;;;;;;;14.11;94.89;100760.47;5027966;28;19932;-89
2024/04/04 06:20:29;;;;;;;;;;;;;;;14.16;94.24;100769.34;5022866;28;19921;-90
2024/04/04 06:22:54;;;;;;;;;;;;;;;14.19;94.10;100763.44;5028709;28;19925;-91
2024/04/04 06:25:19;;;;;;;;;;;;;;;14.25;94.20;100772.31;5030453;28;19920;-90
2024/04/04 06:27:44;;;;;;;;;;;;;;;14.28;94.14;100777.16;5029859;28;19920;-90
2024/04/04 06:30:09;;;;;;;;;;;;;;;14.30;94.36;100776.88;5034073;28;20436;-91
2024/04/04 06:32:36;;;;;;;;;;;;;;;14.34;94.39;100775.25;5031765;28;19918;-91
2024/04/04 06:35:02;;;;;;;;;;;;;;;14.37;94.17;100769.34;5033289;28;19971;-90
2024/04/04 06:37:27;;;;;;;;;;;;;;;14.41;93.64;100773.09;5030630;28;19918;-90
2024/04/04 06:39:52;;;;;;;;;;;;;;;14.42;94.16;100764.75;5026190;28;19963;-91
2024/04/04 06:42:17;;;;;;;;;;;;;;;14.48;94.84;100769.06;5027352;28;20366;-90
2024/04/04 06:44:43;;;;;;;;;;;;;;;14.54;93.82;100769.03;5024550;28;19975;-90
2024/04/04 06:47:10;;;;;;;;;;;;;;;14.58;94.29;100778.22;5027530;28;19999;-90
2024/04/04 06:49:36;;;;;;;;;;;;;;;14.69;94.52;100777.91;5029616;28;19918;-90
2024/04/04 06:52:01;;;;;;;;;;;;;;;14.77;94.48;100781.94;5028077;28;19927;-91
2024/04/04 06:54:26;;;;;;;;;;;;;;;14.84;93.62;100779.75;5032427;28;19917;-90
2024/04/04 06:56:52;;;;;;;;;;;;;;;14.94;93.54;100785.09;5031321;28;19921;-90
2024/04/04 06:59:17;;;;;;;;;;;;;;;15.06;92.49;100784.78;5028061;28;19918;-90
2024/04/04 07:01:43;;;;;;;;;;;;;;;15.13;92.46;100782.59;5026136;28;19928;-90
2024/04/04 07:04:08;;;;;;;;;;;;;;;15.20;92.23;100793.88;5027072;28;19917;-90
2024/04/04 07:06:34;;;;;;;;;;;;;;;15.28;91.85;100777.13;5033746;28;19917;-90
2024/04/04 07:08:59;;;;;;;;;;;;;;;15.35;91.78;100785.72;5032427;28;20411;-89
2024/04/04 07:11:25;;;;;;;;;;;;;;;15.43;91.38;100779.72;5031949;28;20359;-90
2024/04/04 07:13:50;;;;;;;;;;;;;;;15.52;90.58;100779.94;5026678;28;19929;-89
2024/04/04 07:16:15;;;;;;;;;;;;;;;15.59;90.41;100776.94;5031644;28;19917;-90
2024/04/04 07:18:41;;;;;;;;;;;;;;;15.66;90.84;100778.25;5025916;28;20446;-90
2024/04/04 07:21:06;;;;;;;;;;;;;;;15.75;90.24;100783.84;5027494;28;19917;-91
2024/04/04 07:23:32;;;;;;;;;;;;;;;15.84;90.26;100779.47;5034344;28;19944;-91
2024/04/04 07:25:57;;;;;;;;;;;;;;;15.99;89.71;100775.84;5033194;28;19967;-91
2024/04/04 07:28:23;;;;;;;;;;;;;;;16.05;88.25;100776.63;5032614;28;19967;-90
2024/04/04 07:30:48;;;;;;;;;;;;;;;16.08;88.14;100774.16;5022775;28;20380;-90
2024/04/04 07:33:13;;;;;;;;;;;;;;;16.09;87.88;100777.66;5026793;28;19921;-91
2024/04/04 07:35:38;;;;;;;;;;;;;;;16.14;88.09;100781.09;5029679;28;20189;-90
2024/04/04 07:38:05;;;;;;;;;;;;;;;16.23;87.50;100781.31;5031157;28;20063;-90
2024/04/04 07:40:33;;;;;;;;;;;;;;;16.32;87.44;100782.28;5033669;28;19920;-90
2024/04/04 07:42:58;;;;;;;;;;;;;;;16.44;86.89;100780.03;5028318;28;19921;-92
2024/04/04 07:45:23;;;;;;;;;;;;;;;16.56;87.12;100791.25;5029086;28;20011;-90
2024/04/04 07:47:48;;;;;;;;;;;;;;;16.71;86.41;100790.31;5026990;28;19936;-90
2024/04/04 07:50:16;;;;;;;;;;;;;;;16.86;84.90;100794.72;5025985;28;19921;-90
2024/04/04 07:52:41;;;;;;;;;;;;;;;16.94;83.80;100786.00;5025745;28;20674;-90
2024/04/04 07:55:07;;;;;;;;;;;;;;;17.01;84.25;100782.91;5023029;28;19926;-90
2024/04/04 07:57:32;;;;;;;;;;;;;;;17.11;83.85;100783.59;5027541;28;20447;-90
2024/04/04 07:59:57;;;;;;;;;;;;;;;17.18;82.27;100788.66;5023780;28;19917;-90
2024/04/04 08:02:23;;;;;;;;;;;;;;;17.13;81.32;100792.25;5027533;28;19973;-90
2024/04/04 08:04:49;;;;;;;;;;;;;;;17.10;80.45;100797.44;5028781;28;19917;-89
2024/04/04 08:07:15;;;;;;;;;;;;;;;17.06;79.59;100799.13;5017139;28;19931;-89
2024/04/04 08:09:40;;;;;;;;;;;;;;;17.07;78.80;100798.81;5022493;28;20393;-89
2024/04/04 08:12:05;;;;;;;;;;;;;;;17.10;78.93;100795.53;5025412;28;19925;-89
2024/04/04 08:14:31;;;;;;;;;;;;;;;17.12;78.74;100795.25;5034205;28;19917;-88
2024/04/04 08:16:57;;;;;;;;;;;;;;;17.10;77.94;100792.03;5030279;28;19917;-89
2024/04/04 08:19:22;;;;;;;;;;;;;;;17.09;77.88;100795.81;5030577;28;19940;-89
2024/04/04 08:21:48;;;;;;;;;;;;;;;17.09;77.62;100799.34;5023396;28;20370;-88
2024/04/04 08:24:13;;;;;;;;;;;;;;;17.09;77.98;100815.59;5024768;28;19963;-89
2024/04/04 08:26:38;;;;;;;;;;;;;;;17.07;77.08;100809.66;5022849;28;19952;-89
2024/04/04 08:29:04;;;;;;;;;;;;;;;17.09;76.55;100809.38;5030156;28;20037;-89
2024/04/04 08:31:29;;;;;;;;;;;;;;;17.12;76.04;100812.28;5029576;28;19928;-88
2024/04/04 08:33:54;;;;;;;;;;;;;;;17.14;75.28;100815.50;5024682;28;19921;-88
2024/04/04 08:36:19;;;;;;;;;;;;;;;17.05;74.59;100806.41;5024933;28;20263;-89
2024/04/04 08:38:44;;;;;;;;;;;;;;;17.02;74.95;100807.00;5021187;28;19921;-88
2024/04/04 08:41:10;;;;;;;;;;;;;;;16.98;74.81;100805.97;5025054;28;19917;-89
2024/04/04 08:43:35;;;;;;;;;;;;;;;17.00;74.29;100803.78;5029321;28;19944;-88
2024/04/04 08:46:02;;;;;;;;;;;;;;;17.05;73.66;100801.00;5028036;28;19927;-88
2024/04/04 08:48:27;;;;;;;;;;;;;;;17.18;73.82;100800.28;5024356;28;19929;-88
2024/04/04 08:50:53;;;;;;;;;;;;;;;17.31;72.96;100801.47;5019138;28;20310;-89
2024/04/04 08:53:22;;;;;;;;;;;;;;;17.41;72.20;100795.91;5028948;28;20509;-89
2024/04/04 08:55:49;;;;;;;;;;;;;;;17.50;71.23;100785.25;5026960;28;19952;-89
2024/04/04 08:58:15;;;;;;;;;;;;;;;17.65;70.95;100792.34;5025418;28;19917;-89
2024/04/04 09:00:41;;;;;;;;;;;;;;;17.84;70.78;100797.78;5028516;28;19925;-88
2024/04/04 09:03:07;;;;;;;;;;;;;;;17.89;69.55;100795.78;5041701;28;19975;-88
2024/04/04 09:05:32;;;;;;;;;;;;;;;18.00;69.29;100799.16;5026964;28;20709;-89
2024/04/04 09:07:57;;;;;;;;;;;;;;;18.09;68.96;100791.94;5028175;28;19920;-89
2024/04/04 09:10:22;;;;;;;;;;;;;;;18.20;67.43;100793.38;5026114;28;20008;-89
2024/04/04 09:12:47;;;;;;;;;;;;;;;18.20;66.60;100777.09;5029857;28;19920;-89
2024/04/04 09:15:15;;;;;;;;;;;;;;;18.18;66.61;100773.88;5032838;28;19921;-88
2024/04/04 09:17:40;;;;;;;;;;;;;;;18.23;66.32;100770.28;5033131;28;20396;-90
2024/04/04 09:20:05;;;;;;;;;;;;;;;18.32;65.34;100780.16;5027853;28;19974;-89
2024/04/04 09:22:31;;;;;;;;;;;;;;;18.36;65.16;100780.34;5033387;28;19928;-90
2024/04/04 09:24:59;;;;;;;;;;;;;;;18.36;64.78;100774.94;5031441;28;19995;-89
2024/04/04 09:27:25;;;;;;;;;;;;;;;18.39;64.79;100771.63;5029404;28;19921;-90
2024/04/04 09:29:50;;;;;;;;;;;;;;;18.40;63.72;100765.09;5031405;28;19924;-90
2024/04/04 09:32:17;;;;;;;;;;;;;;;18.34;63.66;100780.66;5027935;28;19952;-89
2024/04/04 09:34:42;;;;;;;;;;;;;;;18.26;62.94;100770.47;5030008;28;19921;-89
2024/04/04 09:37:13;;;;;;;;;;;;;;;18.31;62.87;100767.69;5031247;28;20709;-89
2024/04/04 09:39:42;;;;;;;;;;;;;;;18.41;61.81;100774.81;5032614;28;19921;-89
2024/04/04 09:42:08;;;;;;;;;;;;;;;18.48;61.69;100780.66;5029625;28;19921;-89
2024/04/04 09:44:34;;;;;;;;;;;;;;;18.46;60.89;100773.91;5033372;28;20447;-90
2024/04/04 09:47:00;;;;;;;;;;;;;;;18.52;61.06;100772.75;5029052;28;19921;-89
2024/04/04 09:49:26;;;;;;;;;;;;;;;18.58;60.91;100768.81;5032544;28;19917;-89
2024/04/04 09:51:53;;;;;;;;;;;;;;;18.63;61.01;100753.25;5030606;28;20016;-89
2024/04/04 09:54:20;;;;;;;;;;;;;;;18.68;60.96;100763.22;5031225;28;19917;-89
2024/04/04 09:56:46;;;;;;;;;;;;;;;18.80;60.94;100765.41;5032967;28;19924;-89
2024/04/04 09:59:11;;;;;;;;;;;;;;;18.86;60.24;100766.94;5032627;28;19917;-90
2024/04/04 10:01:37;;;;;;;;;;;;;;;18.98;60.78;100762.59;5032332;28;20239;-90
2024/04/04 10:04:04;;;;;;;;;;;;;;;19.15;60.26;100761.16;5032653;28;19928;-90
2024/04/04 10:06:35;;;;;;;;;;;;;;;19.26;59.31;100768.00;5023839;28;20468;-89
2024/04/04 10:09:11;;;;;;;;;;;;;;;19.35;58.41;100776.19;5029202;28;19959;-90
2024/04/04 10:11:37;;;;;;;;;;;;;;;19.46;58.09;100758.56;5030265;28;19917;-90
2024/04/04 10:14:02;;;;;;;;;;;;;;;19.58;57.59;100748.81;5031789;28;20294;-90
2024/04/04 10:16:38;;;;;;;;;;;;;;;19.67;55.54;100745.34;5032387;28;19917;-90
2024/04/04 10:19:09;;;;;;;;;;;;;;;19.81;55.81;100754.22;5028680;28;19983;-90
2024/04/04 10:21:35;;;;;;;;;;;;;;;19.83;54.68;100749.28;5027212;28;19923;-90
2024/04/04 10:24:01;;;;;;;;;;;;;;;19.76;53.98;100746.22;5031905;28;19996;-91
2024/04/04 10:26:26;;;;;;;;;;;;;;;19.66;54.44;100741.00;5031513;28;19917;-90
2024/04/04 10:28:51;;;;;;;;;;;;;;;19.63;54.00;100741.63;5026003;28;19987;-89
2024/04/04 10:31:16;;;;;;;;;;;;;;;19.64;53.86;100745.97;5032201;28;19949;-91
2024/04/04 10:33:42;;;;;;;;;;;;;;;19.61;52.38;100736.50;5032450;28;19928;-89
2024/04/04 10:36:07;;;;;;;;;;;;;;;19.57;53.35;100738.25;5029211;28;19917;-91
2024/04/04 10:38:34;;;;;;;;;;;;;;;19.57;52.91;100749.13;5031093;28;19916;-90
2024/04/04 10:40:59;;;;;;;;;;;;;;;19.65;52.95;100739.41;5029901;28;19921;-91
2024/04/04 10:43:25;;;;;;;;;;;;;;;19.63;52.10;100741.63;5030993;28;20453;-91
2024/04/04 10:45:50;;;;;;;;;;;;;;;19.58;51.64;100737.94;5031073;28;19921;-90
2024/04/04 10:48:15;;;;;;;;;;;;;;;19.66;52.16;100735.56;5031797;28;21570;-90
2024/04/04 10:50:40;;;;;;;;;;;;;;;19.70;51.64;100734.63;5031467;28;20003;-90
2024/04/04 10:53:06;;;;;;;;;;;;;;;19.69;51.64;100727.59;5025829;28;19920;-89
2024/04/04 10:55:32;;;;;;;;;;;;;;;19.74;51.68;100724.75;5030072;28;19913;-90
2024/04/04 10:57:58;;;;;;;;;;;;;;;19.79;51.93;100721.91;5025393;28;19917;-90
2024/04/04 11:00:28;;;;;;;;;;;;;;;19.86;52.17;100719.56;5026803;28;19928;-90
2024/04/04 11:02:54;;;;;;;;;;;;;;;19.91;51.85;100710.47;5027522;28;19921;-91
2024/04/04 11:05:19;;;;;;;;;;;;;;;19.92;52.10;100712.06;5029518;28;19924;-88
2024/04/04 11:07:47;;;;;;;;;;;;;;;19.85;51.74;100711.72;5033218;28;19924;-90
2024/04/04 11:10:14;;;;;;;;;;;;;;;19.84;51.77;100715.56;5030633;28;19928;-91
2024/04/04 11:12:39;;;;;;;;;;;;;;;19.85;51.52;100712.53;5031319;28;19917;-91
2024/04/04 11:15:05;;;;;;;;;;;;;;;19.85;50.19;100700.84;5044322;28;20364;-90
2024/04/04 11:17:31;;;;;;;;;;;;;;;19.78;50.08;100703.22;5030738;28;20507;-90
2024/04/04 11:20:04;;;;;;;;;;;;;;;19.84;50.48;100693.81;5028663;28;19995;-91
2024/04/04 11:22:30;;;;;;;;;;;;;;;19.92;50.21;100693.03;5027863;28;19944;-91
2024/04/04 11:24:55;;;;;;;;;;;;;;;19.97;50.02;100698.34;5027295;28;19921;-91
2024/04/04 11:27:20;;;;;;;;;;;;;;;20.02;49.39;100700.94;5028240;28;19917;-90
2024/04/04 11:29:45;;;;;;;;;;;;;;;20.03;49.16;100699.81;5029965;28;19943;-90
2024/04/04 11:32:10;;;;;;;;;;;;;;;19.96;48.71;100695.94;5026259;28;19923;-90
2024/04/04 11:34:36;;;;;;;;;;;;;;;19.90;47.92;100692.53;5028039;28;19943;-91
2024/04/04 11:37:01;;;;;;;;;;;;;;;19.83;47.79;100686.75;5025986;28;19924;-91
2024/04/04 11:39:26;;;;;;;;;;;;;;;19.83;48.21;100686.75;5032788;28;20003;-91
2024/04/04 11:41:54;;;;;;;;;;;;;;;19.84;47.81;100686.44;5030187;28;19983;-91
2024/04/04 11:44:19;;;;;;;;;;;;;;;19.82;47.79;100685.97;5029590;28;19917;-91
2024/04/04 11:46:44;;;;;;;;;;;;;;;19.82;47.54;100693.31;5027293;28;20008;-91
2024/04/04 11:49:09;;;;;;;;;;;;;;;19.83;48.24;100692.19;5028569;28;19928;-91
2024/04/04 11:51:35;;;;;;;;;;;;;;;19.95;48.41;100684.28;5030591;28;19952;-91
2024/04/04 11:54:01;;;;;;;;;;;;;;;19.99;47.69;100692.59;5030757;28;20381;-91
2024/04/04 11:56:26;;;;;;;;;;;;;;;19.94;47.28;100688.09;5023145;28;20282;-91
2024/04/04 11:58:51;;;;;;;;;;;;;;;19.85;47.79;100674.44;5031429;28;19924;-90
2024/04/04 12:01:17;;;;;;;;;;;;;;;19.77;47.67;100671.69;5027837;28;20028;-91
2024/04/04 12:03:42;;;;;;;;;;;;;;;19.68;47.53;100679.00;5032776;28;20332;-91
2024/04/04 12:06:07;;;;;;;;;;;;;;;19.62;47.79;100686.47;5027565;28;19917;-92
2024/04/04 12:08:32;;;;;;;;;;;;;;;19.54;47.88;100676.34;5024229;28;19918;-92
2024/04/04 12:11:02;;;;;;;;;;;;;;;19.55;48.55;100669.78;5027531;28;20385;-91
2024/04/04 12:13:28;;;;;;;;;;;;;;;19.54;48.45;100668.97;5029990;28;19952;-92
2024/04/04 12:15:54;;;;;;;;;;;;;;;19.46;48.76;100667.00;5030666;28;20002;-90
2024/04/04 12:21:04;;;;;;;;;;;;;;;19.36;49.46;100656.34;5029056;28;20035;-92
2024/04/04 12:23:29;;;;;;;;;;;;;;;19.30;49.68;100663.03;5028134;28;20016;-91
2024/04/04 12:25:54;;;;;;;;;;;;;;;19.26;49.45;100659.34;5024150;28;19921;-91
2024/04/04 12:28:19;;;;;;;;;;;;;;;19.21;49.96;100659.44;5022389;28;19921;-92
2024/04/04 12:30:45;;;;;;;;;;;;;;;19.18;50.25;100649.19;5026908;28;19917;-91